Time;durP1;ratioP1;P1;durP2;ratioP2;P2;SDS_P1;SDS_P2;PMS_P1;PMS_P2;Temp;Humidity;BMP_temperature;BMP_pressure;BME280_temperature;BME280_humidity;BME280_pressure;Samples;Min_cycle;Max_cycle;Signal;HPM_P1;HPM_P2
2023/03/01 00:02:13;;;;;;;2.90;1.47;;;;;;;1.04;72.39;100708.63;4900763;29;20287;-63
2023/03/01 00:04:42;;;;;;;2.00;1.83;;;;;;;1.08;72.40;100704.66;4900730;29;20766;-63
2023/03/01 00:07:11;;;;;;;3.03;2.83;;;;;;;1.11;72.01;100695.59;4900501;29;20052;-63
2023/03/01 00:09:40;;;;;;;3.33;2.57;;;;;;;1.12;72.50;100697.34;4900423;29;20044;-63
2023/03/01 00:12:09;;;;;;;2.08;1.88;;;;;;;1.15;72.47;100701.66;4900419;29;20087;-63
2023/03/01 00:14:39;;;;;;;4.53;2.67;;;;;;;1.14;72.49;100695.78;4900568;29;20511;-63
2023/03/01 00:17:08;;;;;;;0.75;0.75;;;;;;;1.15;72.55;100692.44;4900307;29;20048;-63
2023/03/01 00:19:37;;;;;;;0.70;0.70;;;;;;;1.16;72.75;100704.25;4900548;29;20047;-63
2023/03/01 00:22:06;;;;;;;1.73;1.48;;;;;;;1.18;72.53;100697.66;4900121;29;20105;-63
2023/03/01 00:24:34;;;;;;;2.63;2.42;;;;;;;1.18;72.54;100692.63;4900143;29;20491;-63
2023/03/01 00:27:03;;;;;;;1.00;1.00;;;;;;;1.22;72.66;100698.69;4900436;29;20649;-63
2023/03/01 00:29:32;;;;;;;2.07;1.93;;;;;;;1.25;72.88;100689.63;4900414;29;20132;-63
2023/03/01 00:32:03;;;;;;;0.40;0.40;;;;;;;1.28;72.92;100689.81;4899170;29;20699;-63
2023/03/01 00:34:32;;;;;;;2.55;2.05;;;;;;;1.30;73.17;100683.22;4898483;29;20052;-63
2023/03/01 00:37:05;;;;;;;1.42;1.15;;;;;;;1.31;73.21;100679.91;4900217;29;20046;-63
2023/03/01 00:39:34;;;;;;;1.67;1.58;;;;;;;1.35;73.64;100676.78;4899946;29;20451;-63
2023/03/01 00:42:02;;;;;;;2.28;1.17;;;;;;;1.34;73.24;100669.16;4899738;29;20135;-63
2023/03/01 00:44:31;;;;;;;1.87;1.33;;;;;;;1.35;72.50;100665.84;4898664;29;20056;-63
2023/03/01 00:47:00;;;;;;;1.23;1.15;;;;;;;1.43;72.61;100661.22;4899687;29;20075;-63
2023/03/01 00:49:31;;;;;;;2.83;2.13;;;;;;;1.41;72.79;100675.34;4899713;29;20041;-63
2023/03/01 00:51:59;;;;;;;3.17;2.97;;;;;;;1.46;72.25;100666.41;4899936;29;20068;-63
2023/03/01 00:54:29;;;;;;;1.80;1.52;;;;;;;1.50;72.10;100665.75;4899887;29;20040;-63
2023/03/01 00:56:58;;;;;;;1.98;1.83;;;;;;;1.47;72.19;100660.56;4898698;29;20101;-63
2023/03/01 00:59:26;;;;;;;0.98;0.95;;;;;;;1.53;72.17;100655.88;4899789;29;20091;-63
2023/03/01 01:01:55;;;;;;;2.20;1.43;;;;;;;1.60;71.91;100662.94;4898275;29;20083;-63
2023/03/01 01:04:24;;;;;;;1.70;1.13;;;;;;;1.62;72.25;100656.31;4899443;29;20090;-63
2023/03/01 01:06:55;;;;;;;1.97;1.57;;;;;;;1.65;71.96;100653.97;4899630;29;20037;-63
2023/03/01 01:09:25;;;;;;;3.42;1.55;;;;;;;1.63;71.64;100653.88;4899409;29;20339;-63
2023/03/01 01:11:54;;;;;;;1.70;1.60;;;;;;;1.66;71.61;100658.19;4899844;29;20045;-63
2023/03/01 01:14:23;;;;;;;1.87;1.77;;;;;;;1.63;72.31;100663.09;4898098;29;20052;-63
2023/03/01 01:16:52;;;;;;;0.67;0.67;;;;;;;1.63;71.62;100673.16;4897993;29;20127;-63
2023/03/01 01:19:21;;;;;;;1.15;1.15;;;;;;;1.64;71.44;100664.81;4899198;29;20074;-63
2023/03/01 01:21:50;;;;;;;0.57;0.57;;;;;;;1.61;71.36;100662.16;4897899;29;20128;-63
2023/03/01 01:24:21;;;;;;;2.95;1.52;;;;;;;1.65;70.99;100664.91;4899081;29;20135;-63
2023/03/01 01:26:50;;;;;;;0.60;0.60;;;;;;;1.69;70.99;100658.34;4897878;29;20079;-63
2023/03/01 01:29:19;;;;;;;1.45;1.35;;;;;;;1.74;71.42;100661.97;4899004;29;20049;-63
2023/03/01 01:31:48;;;;;;;0.70;0.70;;;;;;;1.76;70.97;100665.41;4898111;29;20044;-63
2023/03/01 01:34:20;;;;;;;2.65;2.42;;;;;;;1.80;71.13;100658.09;4898681;29;20052;-63
2023/03/01 01:36:50;;;;;;;1.23;1.15;;;;;;;1.79;71.69;100645.44;4897725;29;20589;-63
2023/03/01 01:39:20;;;;;;;0.88;0.88;;;;;;;1.82;71.58;100648.13;4898840;29;20108;-63
2023/03/01 01:41:49;;;;;;;1.70;1.40;;;;;;;1.82;71.16;100645.59;4898989;29;20052;-63
2023/03/01 01:44:20;;;;;;;2.08;1.50;;;;;;;1.82;71.28;100640.56;4898802;29;20040;-63
2023/03/01 01:46:54;;;;;;;0.73;0.73;;;;;;;1.79;70.86;100645.44;4898784;29;20048;-63
2023/03/01 01:49:33;;;;;;;3.38;1.80;;;;;;;1.73;71.51;100646.00;4898658;29;20132;-63
2023/03/01 01:52:10;;;;;;;1.85;1.75;;;;;;;1.70;70.75;100638.31;4897911;29;20100;-63
2023/03/01 01:54:50;;;;;;;1.52;0.75;;;;;;;1.74;70.79;100626.75;4898994;29;20080;-63
2023/03/01 01:57:27;;;;;;;1.50;1.27;;;;;;;1.69;70.42;100629.03;4897506;29;20076;-63
2023/03/01 02:00:00;;;;;;;1.23;1.13;;;;;;;1.67;71.14;100619.69;4897429;29;20056;-63
2023/03/01 02:02:29;;;;;;;2.83;2.63;;;;;;;1.71;71.13;100619.03;4897396;29;20131;-63
2023/03/01 02:05:11;;;;;;;4.00;3.65;;;;;;;1.76;70.58;100620.13;4898806;29;20048;-63
2023/03/01 02:07:43;;;;;;;1.30;1.23;;;;;;;1.70;70.71;100609.78;4898846;29;20105;-63
2023/03/01 02:10:13;;;;;;;1.67;1.25;;;;;;;1.73;71.20;100619.97;4897266;29;20055;-63
2023/03/01 02:12:43;;;;;;;1.55;1.45;;;;;;;1.75;70.91;100626.81;4898492;29;20052;-63
2023/03/01 02:15:12;;;;;;;1.00;0.93;;;;;;;1.76;70.57;100627.66;4898786;29;20051;-63
2023/03/01 02:17:41;;;;;;;0.57;0.57;;;;;;;1.78;71.48;100618.53;4898420;29;20045;-63
2023/03/01 02:20:22;;;;;;;5.05;2.47;;;;;;;1.77;71.26;100611.81;4898356;29;20495;-63
2023/03/01 02:22:51;;;;;;;0.82;0.82;;;;;;;1.77;71.33;100611.81;4898318;29;20100;-63
2023/03/01 02:25:31;;;;;;;;;;;;;;;1.79;71.19;100611.09;4899033;29;20047;-63
2023/03/01 02:28:03;;;;;;;;;;;;;;;1.80;71.64;100617.00;4897922;29;20353;-63
2023/03/01 02:30:34;;;;;;;2.00;1.88;;;;;;;1.81;71.56;100614.53;4898534;29;19976;-63
2023/03/01 02:33:04;;;;;;;2.13;1.75;;;;;;;1.78;70.93;100609.34;4898610;29;20068;-63
2023/03/01 02:35:38;;;;;;;0.50;0.50;;;;;;;1.81;71.90;100614.53;4898128;29;20503;-63
2023/03/01 02:38:10;;;;;;;1.80;1.65;;;;;;;1.80;71.81;100604.41;4898274;29;20495;-63
2023/03/01 02:40:40;;;;;;;1.25;1.15;;;;;;;1.84;71.93;100608.78;4898441;29;20415;-63
2023/03/01 02:43:13;;;;;;;1.30;1.20;;;;;;;1.79;71.17;100616.13;4897026;29;20054;-63
2023/03/01 02:45:50;;;;;;;1.23;1.10;;;;;;;1.67;72.00;100624.72;4897088;29;20041;-63
2023/03/01 02:48:19;;;;;;;1.08;0.63;;;;;;;1.53;71.95;100620.66;4898214;29;20052;-63
2023/03/01 02:51:09;;;;;;;1.55;1.45;;;;;;;1.52;72.17;100621.44;4898346;29;20463;-63
2023/03/01 02:53:46;;;;;;;3.67;3.00;;;;;;;1.47;71.29;100615.28;4897256;29;20059;-63
2023/03/01 02:56:16;;;;;;;4.20;2.30;;;;;;;1.48;71.73;100606.97;4898113;29;20135;-63
2023/03/01 02:58:50;;;;;;;1.23;1.17;;;;;;;1.53;71.34;100608.06;4897187;29;20442;-63
2023/03/01 03:01:36;;;;;;;0.63;0.63;;;;;;;1.60;72.14;100617.66;4898373;29;20079;-63
2023/03/01 03:04:08;;;;;;;1.50;1.40;;;;;;;1.68;71.68;100616.38;4898067;29;20061;-63
2023/03/01 03:06:38;;;;;;;6.43;2.03;;;;;;;1.69;71.57;100608.03;4897374;29;20049;-63
2023/03/01 03:09:07;;;;;;;;;;;;;;;1.71;71.30;100611.47;4898621;29;20448;-63
2023/03/01 03:11:38;;;;;;;1.55;1.17;;;;;;;1.73;71.70;100609.91;4897911;29;19923;-63
2023/03/01 03:14:12;;;;;;;0.50;0.50;;;;;;;1.81;71.34;100614.53;4897053;29;20403;-63
2023/03/01 03:16:48;;;;;;;1.45;1.23;;;;;;;1.87;72.26;100619.00;4898530;29;20491;-63
2023/03/01 03:19:18;;;;;;;1.88;1.75;;;;;;;1.91;72.14;100616.72;4896780;29;20072;-63
2023/03/01 03:21:47;;;;;;;3.60;1.75;;;;;;;1.94;71.93;100606.78;4900821;29;20045;-63
2023/03/01 03:24:15;;;;;;;0.50;0.50;;;;;;;1.95;71.56;100605.13;4901161;29;20048;-63
2023/03/01 03:26:44;;;;;;;1.67;1.57;;;;;;;1.94;71.53;100606.78;4901561;29;20136;-63
2023/03/01 03:29:13;;;;;;;0.80;0.80;;;;;;;1.91;71.33;100605.78;4901213;29;20136;-63
2023/03/01 03:31:42;;;;;;;0.60;0.60;;;;;;;1.95;71.14;100602.59;4901466;29;20064;-63
2023/03/01 03:34:17;;;;;;;2.97;2.78;;;;;;;1.96;70.98;100590.13;4900808;29;20052;-63
2023/03/01 03:36:46;;;;;;;2.80;2.30;;;;;;;2.00;71.15;100591.13;4901800;29;20068;-63
2023/03/01 03:39:15;;;;;;;2.10;2.00;;;;;;;2.01;71.15;100587.81;4901055;29;20566;-63
2023/03/01 03:41:46;;;;;;;0.98;0.88;;;;;;;2.02;69.93;100584.50;4900890;29;20056;-63
2023/03/01 03:44:15;;;;;;;2.13;1.93;;;;;;;2.03;70.26;100581.19;4901119;29;20448;-63
2023/03/01 03:46:43;;;;;;;0.30;0.30;;;;;;;2.08;70.50;100584.78;4901140;29;20511;-63
2023/03/01 03:49:14;;;;;;;0.33;0.33;;;;;;;2.10;70.26;100583.22;4901139;29;20567;-63
2023/03/01 03:51:42;;;;;;;2.28;2.08;;;;;;;2.13;70.22;100583.38;4901063;29;20052;-63
2023/03/01 03:54:11;;;;;;;0.63;0.63;;;;;;;2.14;70.18;100590.09;4900672;29;20136;-63
2023/03/01 03:56:40;;;;;;;1.25;1.15;;;;;;;2.20;69.75;100585.38;4900987;29;20075;-63
2023/03/01 03:59:11;;;;;;;1.13;1.10;;;;;;;2.25;70.32;100583.94;4900933;29;20128;-63
2023/03/01 04:01:40;;;;;;;1.90;1.75;;;;;;;2.24;69.79;100587.22;4900642;29;20135;-63
2023/03/01 04:04:08;;;;;;;2.33;2.07;;;;;;;2.24;69.54;100577.16;4900476;29;20049;-63
2023/03/01 04:06:39;;;;;;;0.95;0.93;;;;;;;2.23;69.32;100580.47;4900436;29;20053;-63
2023/03/01 04:09:07;;;;;;;6.45;3.90;;;;;;;2.21;70.05;100587.09;4900400;29;20072;-63
2023/03/01 04:11:38;;;;;;;0.75;0.75;;;;;;;2.22;70.42;100588.81;4900673;29;20041;-63
2023/03/01 04:14:07;;;;;;;0.77;0.77;;;;;;;2.18;70.13;100581.94;4900381;29;20053;-63
2023/03/01 04:16:36;;;;;;;2.77;2.43;;;;;;;2.17;69.96;100582.72;4900518;29;20127;-63
2023/03/01 04:19:06;;;;;;;0.87;0.87;;;;;;;2.12;70.74;100576.59;4900263;29;20287;-63
2023/03/01 04:21:35;;;;;;;1.08;0.90;;;;;;;2.15;70.05;100586.81;4900552;29;20057;-63
2023/03/01 04:24:07;;;;;;;0.60;0.60;;;;;;;2.18;70.82;100584.44;4900101;29;20051;-63
2023/03/01 04:26:38;;;;;;;2.03;1.90;;;;;;;2.20;70.13;100587.03;4900335;29;20056;-63
2023/03/01 04:29:07;;;;;;;1.63;1.52;;;;;;;2.24;70.15;100587.22;4900090;29;20615;-63
2023/03/01 04:31:36;;;;;;;1.52;1.42;;;;;;;2.18;70.17;100588.63;4899559;29;20124;-63
2023/03/01 04:34:05;;;;;;;;;;;;;;;2.12;70.60;100584.13;4900062;29;20069;-64
2023/03/01 04:36:35;;;;;;;1.65;1.55;;;;;;;2.00;69.88;100591.97;4900151;29;19924;-63
2023/03/01 04:39:11;;;;;;;5.32;1.88;;;;;;;1.96;69.73;100586.72;4899894;29;20063;-63
2023/03/01 04:41:43;;;;;;;1.83;1.73;;;;;;;2.02;70.29;100585.38;4899839;29;20526;-63
2023/03/01 04:44:12;;;;;;;7.65;3.15;;;;;;;2.05;70.00;100589.69;4900004;29;20495;-63
2023/03/01 04:46:41;;;;;;;2.33;2.08;;;;;;;2.05;69.78;100579.59;4899640;29;20120;-63
2023/03/01 04:49:10;;;;;;;1.40;1.35;;;;;;;2.09;70.07;100586.50;4900066;29;20072;-63
2023/03/01 04:51:38;;;;;;;6.20;1.90;;;;;;;2.07;69.76;100583.06;4899910;29;20083;-63
2023/03/01 04:54:10;;;;;;;2.60;2.40;;;;;;;2.04;69.51;100581.25;4899939;29;20060;-63
2023/03/01 04:56:38;;;;;;;1.33;1.13;;;;;;;2.10;69.60;100583.22;4899454;29;20502;-63
2023/03/01 04:59:09;;;;;;;1.67;1.20;;;;;;;2.12;69.76;100580.75;4899492;29;20048;-63
2023/03/01 05:01:38;;;;;;;1.27;1.17;;;;;;;2.17;69.42;100570.13;4899513;29;20136;-63
2023/03/01 05:04:12;;;;;;;2.50;2.30;;;;;;;2.18;69.53;100571.84;4899307;29;20052;-63
2023/03/01 05:06:41;;;;;;;0.63;0.63;;;;;;;2.19;69.99;100563.50;4899648;29;20053;-63
2023/03/01 05:09:12;;;;;;;5.10;2.58;;;;;;;2.24;69.03;100569.59;4899640;29;20044;-63
2023/03/01 05:11:41;;;;;;;1.75;1.65;;;;;;;2.14;69.49;100548.94;4899404;29;20068;-63
2023/03/01 05:14:10;;;;;;;0.93;0.83;;;;;;;2.21;69.35;100569.44;4899791;29;20076;-63
2023/03/01 05:16:39;;;;;;;;;;;;;;;2.28;69.04;100568.94;4899935;29;20048;-63
2023/03/01 05:19:15;;;;;;;5.70;5.13;;;;;;;2.31;68.94;100570.75;4899297;29;19927;-63
2023/03/01 05:24:24;;;;;;;3.90;3.60;;;;;;;2.31;69.51;100564.06;4899150;29;20052;-63
2023/03/01 05:26:53;;;;;;;2.67;2.47;;;;;;;2.25;70.04;100553.72;4899294;29;20052;-63
2023/03/01 05:29:25;;;;;;;1.95;1.65;;;;;;;2.30;70.02;100556.44;4897938;29;20455;-63
2023/03/01 05:31:55;;;;;;;5.47;3.67;;;;;;;2.30;70.09;100554.78;4898971;29;20066;-63
2023/03/01 05:34:25;;;;;;;3.60;3.22;;;;;;;2.33;70.17;100567.50;4898908;29;20147;-63
2023/03/01 05:36:54;;;;;;;2.88;2.67;;;;;;;2.34;69.85;100569.25;4899209;29;20041;-63
2023/03/01 05:39:27;;;;;;;1.92;1.83;;;;;;;2.28;70.05;100568.94;4898821;29;20563;-63
2023/03/01 05:41:58;;;;;;;0.98;0.95;;;;;;;2.18;69.86;100561.78;4898859;29;20064;-63
2023/03/01 05:44:27;;;;;;;0.60;0.60;;;;;;;2.13;69.83;100562.34;4898422;29;20133;-63
2023/03/01 05:46:56;;;;;;;2.33;2.13;;;;;;;2.10;70.17;100560.56;4898710;29;20127;-63
2023/03/01 05:49:25;;;;;;;1.17;1.10;;;;;;;2.10;69.76;100568.09;4899200;29;20040;-63
2023/03/01 05:51:54;;;;;;;1.63;1.53;;;;;;;2.12;70.46;100560.63;4899474;29;20394;-63
2023/03/01 05:54:25;;;;;;;1.40;1.33;;;;;;;2.15;70.11;100564.16;4898608;29;20056;-63
2023/03/01 05:56:53;;;;;;;4.05;3.50;;;;;;;2.21;70.43;100561.91;4898581;29;20135;-63
2023/03/01 05:59:22;;;;;;;0.83;0.83;;;;;;;2.23;69.34;100552.75;4898382;29;20078;-63
2023/03/01 06:01:51;;;;;;;0.77;0.77;;;;;;;2.31;69.07;100561.53;4898484;29;20048;-63
2023/03/01 06:04:20;;;;;;;2.00;1.90;;;;;;;2.30;69.03;100561.47;4898420;29;20041;-63
2023/03/01 06:06:49;;;;;;;2.00;1.90;;;;;;;2.28;69.03;100568.94;4898750;29;20056;-63
2023/03/01 06:09:18;;;;;;;3.15;2.88;;;;;;;2.29;69.22;100565.66;4898432;29;20048;-63
2023/03/01 06:11:48;;;;;;;3.85;1.15;;;;;;;2.33;68.82;100566.63;4898418;29;20040;-63
2023/03/01 06:14:18;;;;;;;0.65;0.65;;;;;;;2.35;68.41;100570.13;4898717;29;20136;-63
2023/03/01 06:16:47;;;;;;;3.08;2.20;;;;;;;2.40;68.39;100579.59;4897561;29;20135;-63
2023/03/01 06:19:16;;;;;;;1.77;1.67;;;;;;;2.41;69.34;100563.69;4898578;29;20041;-63
2023/03/01 06:21:44;;;;;;;1.85;1.40;;;;;;;2.42;69.25;100567.09;4898646;29;20043;-63
2023/03/01 06:24:13;;;;;;;3.85;1.67;;;;;;;2.38;68.77;100560.16;4898454;29;20049;-63
2023/03/01 06:26:42;;;;;;;0.57;0.57;;;;;;;2.45;68.76;100568.06;4898187;29;20048;-63
2023/03/01 06:29:12;;;;;;;0.38;0.38;;;;;;;2.43;69.26;100567.13;4899113;29;20041;-63
2023/03/01 06:31:41;;;;;;;4.93;2.38;;;;;;;2.50;69.14;100578.34;4898732;29;20052;-63
2023/03/01 06:34:13;;;;;;;0.50;0.50;;;;;;;2.53;69.17;100576.84;4898087;29;20049;-64
2023/03/01 06:36:42;;;;;;;4.57;2.45;;;;;;;2.59;69.06;100584.66;4898174;29;20052;-63
2023/03/01 06:39:10;;;;;;;1.42;1.33;;;;;;;2.62;68.68;100579.78;4898129;29;20145;-63
2023/03/01 06:41:39;;;;;;;3.00;1.97;;;;;;;2.63;68.80;100579.00;4898136;29;20052;-63
2023/03/01 06:44:08;;;;;;;3.47;2.80;;;;;;;2.71;68.46;100582.69;4897998;29;20100;-63
2023/03/01 06:46:40;;;;;;;1.77;1.63;;;;;;;2.77;68.61;100576.22;4898350;29;20053;-63
2023/03/01 06:49:09;;;;;;;1.55;1.45;;;;;;;2.76;67.75;100579.53;4898352;29;20052;-63
2023/03/01 06:51:37;;;;;;;1.80;1.70;;;;;;;2.79;68.17;100579.66;4898054;29;20045;-63
2023/03/01 06:54:06;;;;;;;1.92;1.77;;;;;;;2.80;68.07;100581.41;4898018;29;20055;-63
2023/03/01 06:56:35;;;;;;;2.60;2.40;;;;;;;2.85;67.46;100582.47;4900833;29;20563;-63
2023/03/01 06:59:04;;;;;;;1.93;1.83;;;;;;;2.89;68.17;100584.31;4901626;29;20044;-63
2023/03/01 07:01:33;;;;;;;1.45;1.15;;;;;;;2.87;67.41;100581.75;4901548;29;20496;-63
2023/03/01 07:04:03;;;;;;;1.33;0.83;;;;;;;2.91;68.29;100585.25;4901776;29;20036;-63
2023/03/01 07:06:32;;;;;;;3.72;1.45;;;;;;;2.91;67.49;100580.19;4901798;29;20491;-63
2023/03/01 07:09:01;;;;;;;2.03;1.67;;;;;;;2.86;68.10;100576.59;4901529;29;20124;-63
2023/03/01 07:11:29;;;;;;;1.23;0.93;;;;;;;2.96;68.34;100583.78;4901917;29;20036;-63
2023/03/01 07:13:59;;;;;;;2.07;1.80;;;;;;;2.97;67.66;100571.28;4901443;29;20097;-63
2023/03/01 07:16:28;;;;;;;1.55;1.30;;;;;;;2.95;68.35;100577.03;4901666;29;20101;-63
2023/03/01 07:18:58;;;;;;;1.17;1.02;;;;;;;3.02;67.37;100568.94;4901562;29;20076;-63
2023/03/01 07:21:28;;;;;;;9.60;1.98;;;;;;;3.10;67.42;100562.56;4901604;29;20067;-63
2023/03/01 07:23:57;;;;;;;0.70;0.70;;;;;;;3.17;67.42;100574.63;4901390;29;20385;-63
2023/03/01 07:26:26;;;;;;;0.88;0.88;;;;;;;3.15;67.95;100581.25;4901278;29;20104;-62
2023/03/01 07:28:55;;;;;;;2.47;2.28;;;;;;;3.09;67.54;100570.94;4901130;29;20055;-62
2023/03/01 07:31:27;;;;;;;1.27;1.20;;;;;;;3.11;67.30;100569.34;4901978;29;20113;-62
2023/03/01 07:33:56;;;;;;;3.17;2.88;;;;;;;3.13;67.10;100562.69;4901337;29;20470;-63
2023/03/01 07:36:26;;;;;;;1.20;1.10;;;;;;;3.15;67.25;100563.63;4901097;29;20071;-63
2023/03/01 07:38:57;;;;;;;2.67;2.40;;;;;;;3.30;66.14;100572.72;4901218;29;20102;-63
2023/03/01 07:41:26;;;;;;;0.60;0.60;;;;;;;3.32;66.71;100570.25;4901218;29;20056;-62
2023/03/01 07:43:55;;;;;;;0.87;0.87;;;;;;;3.38;65.89;100566.31;4901165;29;20037;-63
2023/03/01 07:46:24;;;;;;;4.93;2.20;;;;;;;3.43;65.86;100571.56;4900804;29;20042;-63
2023/03/01 07:48:53;;;;;;;4.40;1.93;;;;;;;3.46;65.30;100571.69;4900180;29;20455;-63
2023/03/01 07:51:21;;;;;;;0.73;0.73;;;;;;;3.59;65.04;100566.34;4900844;29;20093;-63
2023/03/01 07:53:50;;;;;;;0.47;0.47;;;;;;;3.64;64.60;100564.88;4900684;29;20495;-63
2023/03/01 07:56:21;;;;;;;2.20;1.75;;;;;;;3.58;64.65;100557.03;4897565;29;20507;-63
2023/03/01 07:58:50;;;;;;;3.40;2.50;;;;;;;3.72;64.08;100563.50;4881760;29;20141;-63
2023/03/01 08:01:21;;;;;;;3.90;1.75;;;;;;;3.83;63.99;100562.31;4881098;29;20045;-63
2023/03/01 08:03:50;;;;;;;0.88;0.88;;;;;;;3.91;64.06;100560.94;4889848;29;20074;-63
2023/03/01 08:06:19;;;;;;;4.50;3.05;;;;;;;3.93;64.02;100564.41;4895053;29;20198;-63
2023/03/01 08:08:48;;;;;;;1.05;0.95;;;;;;;3.93;63.32;100564.41;4900642;29;20079;-63
2023/03/01 08:11:17;;;;;;;1.20;1.10;;;;;;;3.94;63.32;100571.16;4899656;29;20128;-63
2023/03/01 08:13:49;;;;;;;3.00;2.78;;;;;;;3.97;63.27;100567.88;4900375;29;20452;-63
2023/03/01 08:16:21;;;;;;;1.33;1.23;;;;;;;3.94;63.42;100565.22;4899883;29;20131;-62
2023/03/01 08:18:50;;;;;;;2.47;2.25;;;;;;;3.93;63.13;100564.41;4898828;29;20040;-62
2023/03/01 08:21:20;;;;;;;6.93;1.75;;;;;;;4.05;63.32;100562.31;4900114;29;20049;-63
2023/03/01 08:23:48;;;;;;;7.83;4.37;;;;;;;4.21;63.34;100551.16;4900734;29;20447;-63
2023/03/01 08:26:19;;;;;;;;;;;;;;;4.35;62.53;100556.72;4900042;29;20049;-63
2023/03/01 08:28:50;;;;;;;;;;;;;;;4.59;62.30;100550.06;4899847;29;20297;-63
2023/03/01 08:31:22;;;;;;;0.70;0.70;;;;;;;4.74;60.90;100545.59;4898387;29;19923;-63
2023/03/01 08:33:55;;;;;;;0.95;0.82;;;;;;;4.81;60.71;100546.66;4898607;29;20387;-63
2023/03/01 08:36:25;;;;;;;2.53;2.33;;;;;;;5.09;60.60;100540.09;4898452;29;20060;-64
2023/03/01 08:38:55;;;;;;;1.65;1.55;;;;;;;5.26;60.17;100544.06;4899679;29;20045;-63
2023/03/01 08:41:24;;;;;;;1.98;1.85;;;;;;;5.31;59.54;100547.63;4899784;29;20088;-64
2023/03/01 08:43:58;;;;;;;1.25;1.15;;;;;;;5.38;59.05;100539.44;4899719;29;20055;-63
2023/03/01 08:46:28;;;;;;;1.48;1.40;;;;;;;5.57;58.52;100542.56;4899714;29;20044;-63
2023/03/01 08:48:58;;;;;;;1.83;1.73;;;;;;;5.69;58.18;100535.34;4899687;29;20052;-63
2023/03/01 08:51:28;;;;;;;2.63;1.23;;;;;;;5.80;57.95;100529.00;4899610;29;20567;-63
2023/03/01 08:53:57;;;;;;;2.05;1.88;;;;;;;5.82;57.63;100529.88;4899676;29;20181;-64
2023/03/01 08:56:26;;;;;;;2.38;2.17;;;;;;;5.94;57.57;100527.78;4899763;29;20440;-63
2023/03/01 08:58:56;;;;;;;2.15;1.98;;;;;;;6.03;57.21;100528.06;4899428;29;20054;-64
2023/03/01 09:01:25;;;;;;;1.42;1.33;;;;;;;6.12;56.96;100525.78;4899792;29;20453;-64
2023/03/01 09:03:54;;;;;;;1.27;1.20;;;;;;;6.23;56.67;100521.94;4899732;29;20096;-64
2023/03/01 09:06:23;;;;;;;1.85;1.63;;;;;;;6.25;56.54;100515.22;4899259;29;20060;-64
2023/03/01 09:08:52;;;;;;;1.15;1.10;;;;;;;6.48;56.24;100515.88;4899901;29;20127;-64
2023/03/01 09:11:22;;;;;;;4.28;2.83;;;;;;;6.55;55.81;100515.28;4899412;29;20048;-63
2023/03/01 09:13:51;;;;;;;1.20;1.08;;;;;;;6.53;55.08;100516.88;4899242;29;20060;-64
2023/03/01 09:16:23;;;;;;;1.40;1.30;;;;;;;6.59;54.66;100523.00;4899575;29;20048;-64
2023/03/01 09:18:54;;;;;;;2.60;2.40;;;;;;;6.68;53.71;100519.84;4898603;29;20080;-64
2023/03/01 09:21:24;;;;;;;0.90;0.90;;;;;;;6.80;53.04;100521.88;4899100;29;20140;-64
2023/03/01 09:24:13;;;;;;;3.22;2.67;;;;;;;6.89;53.14;100522.13;4899342;29;20399;-64
2023/03/01 09:26:46;;;;;;;3.95;3.38;;;;;;;6.96;53.12;100508.81;4897860;29;20049;-64
2023/03/01 09:29:18;;;;;;;0.82;0.82;;;;;;;6.73;52.96;100509.03;4899162;29;20046;-64
2023/03/01 09:31:48;;;;;;;1.58;1.48;;;;;;;6.58;53.40;100520.41;4899061;29;20131;-64
2023/03/01 09:34:22;;;;;;;1.77;1.67;;;;;;;6.54;53.68;100529.63;4898965;29;20055;-64
2023/03/01 09:36:52;;;;;;;3.30;2.33;;;;;;;6.46;53.27;100520.06;4899167;29;20074;-64
2023/03/01 09:39:21;;;;;;;1.80;1.63;;;;;;;6.53;53.59;100517.75;4898879;29;20087;-64
2023/03/01 09:41:55;;;;;;;2.20;2.00;;;;;;;6.49;53.33;100531.16;4899149;29;20135;-64
2023/03/01 09:44:37;;;;;;;3.97;1.55;;;;;;;6.47;53.60;100524.31;4898499;29;20045;-63
2023/03/01 09:47:13;;;;;;;1.63;1.48;;;;;;;6.41;53.83;100521.59;4898418;29;20075;-63
2023/03/01 09:49:48;;;;;;;1.67;1.33;;;;;;;6.44;53.28;100516.63;4899021;29;20079;-63
2023/03/01 09:52:26;;;;;;;0.90;0.90;;;;;;;6.51;53.32;100521.91;4898737;29;20048;-63
2023/03/01 09:54:56;;;;;;;2.25;1.83;;;;;;;6.54;53.54;100514.41;4898783;29;20440;-63
2023/03/01 09:57:33;;;;;;;2.47;2.25;;;;;;;6.50;53.19;100510.03;4898561;29;20068;-64
2023/03/01 10:00:15;;;;;;;0.60;0.60;;;;;;;6.45;53.56;100504.00;4910266;29;20056;-64
2023/03/01 10:02:49;;;;;;;3.00;2.15;;;;;;;6.51;53.66;100501.63;4895277;29;20047;-64
2023/03/01 10:05:35;;;;;;;1.30;1.20;;;;;;;6.59;53.88;100504.38;4879468;29;20136;-64
2023/03/01 10:08:24;;;;;;;1.25;1.15;;;;;;;6.77;54.15;100506.59;4879960;29;20041;-63
2023/03/01 10:10:54;;;;;;;5.05;2.42;;;;;;;6.85;54.35;100502.56;4879726;29;20052;-63
2023/03/01 10:13:27;;;;;;;4.70;2.43;;;;;;;6.82;54.62;100508.41;4879821;29;20047;-63
2023/03/01 10:16:00;;;;;;;2.00;1.63;;;;;;;6.82;55.01;100503.34;4880010;29;20411;-63
2023/03/01 10:18:33;;;;;;;3.58;2.38;;;;;;;6.77;55.29;100496.44;4879730;29;20534;-63
2023/03/01 10:21:04;;;;;;;2.03;1.88;;;;;;;6.70;55.77;100498.78;4879960;29;20056;-63
2023/03/01 10:23:39;;;;;;;2.92;2.70;;;;;;;6.78;55.92;100493.94;4879757;29;20061;-63
2023/03/01 10:26:24;;;;;;;2.03;1.75;;;;;;;6.75;55.42;100494.72;4888465;29;20072;-63
2023/03/01 10:29:03;;;;;;;2.03;1.83;;;;;;;6.72;55.98;100487.00;4898629;29;20567;-63
2023/03/01 10:31:40;;;;;;;7.13;3.47;;;;;;;6.79;55.96;100480.41;4902074;29;20048;-64
2023/03/01 10:34:15;;;;;;;3.47;2.90;;;;;;;6.87;56.32;100484.03;4898795;29;20367;-64
2023/03/01 10:36:45;;;;;;;2.17;1.98;;;;;;;7.04;56.29;100471.78;4902129;29;20052;-63
2023/03/01 10:39:20;;;;;;;1.80;1.52;;;;;;;7.05;56.27;100471.84;4902246;29;20045;-63
2023/03/01 10:41:58;;;;;;;4.50;1.50;;;;;;;7.14;55.90;100468.66;4902047;29;20105;-63
2023/03/01 10:44:39;;;;;;;1.30;1.20;;;;;;;7.16;55.69;100464.50;4906235;29;20135;-63
2023/03/01 10:47:20;;;;;;;1.35;1.25;;;;;;;7.21;54.91;100455.31;4920685;29;20044;-63
2023/03/01 10:50:02;;;;;;;12.73;2.70;;;;;;;7.23;55.50;100443.50;4921060;29;20060;-63
2023/03/01 10:52:35;;;;;;;1.58;1.45;;;;;;;7.39;55.15;100445.59;4918279;29;20059;-63
2023/03/01 10:55:25;;;;;;;2.38;2.17;;;;;;;7.47;55.01;100443.25;4915691;29;20049;-63
2023/03/01 10:58:09;;;;;;;2.35;1.48;;;;;;;7.43;54.63;100434.72;4901735;29;20052;-63
2023/03/01 11:00:48;;;;;;;2.47;1.67;;;;;;;7.46;54.20;100432.25;4895258;29;20049;-64
2023/03/01 11:03:22;;;;;;;5.25;1.90;;;;;;;7.56;54.91;100433.31;4915936;29;20135;-63
2023/03/01 11:06:01;;;;;;;0.70;0.70;;;;;;;7.75;54.17;100436.28;4921190;29;20372;-63
2023/03/01 11:08:39;;;;;;;1.23;1.13;;;;;;;7.72;54.21;100421.00;4920365;29;20048;-63
2023/03/01 11:11:19;;;;;;;1.70;1.33;;;;;;;7.54;53.21;100397.72;4920337;29;20056;-63
2023/03/01 11:13:53;;;;;;;2.75;2.38;;;;;;;7.54;53.59;100407.88;4919444;29;20048;-63
2023/03/01 11:16:32;;;;;;;1.67;1.58;;;;;;;7.61;53.76;100402.09;4920646;29;20071;-63
2023/03/01 11:19:15;;;;;;;1.77;1.67;;;;;;;7.58;53.98;100402.06;4920516;29;20048;-63
2023/03/01 11:21:54;;;;;;;1.13;1.02;;;;;;;7.63;53.59;100386.91;4920196;29;20048;-63
2023/03/01 11:24:28;;;;;;;1.38;1.27;;;;;;;7.83;53.30;100399.22;4914795;29;20045;-64
2023/03/01 11:26:57;;;;;;;9.27;2.35;;;;;;;7.80;52.01;100396.59;4896935;29;20071;-64
2023/03/01 11:29:33;;;;;;;0.85;0.82;;;;;;;7.95;51.73;100388.44;4901048;29;20091;-63
2023/03/01 11:32:16;;;;;;;;;;;;;;;8.09;51.83;100387.06;4904879;29;20049;-63
2023/03/01 11:34:51;;;;;;;1.23;1.13;;;;;;;7.95;50.80;100355.41;4898496;29;19923;-63
2023/03/01 11:37:36;;;;;;;1.13;1.02;;;;;;;8.23;50.33;100378.00;4898694;29;20049;-63
2023/03/01 11:40:14;;;;;;;0.60;0.60;;;;;;;8.34;51.35;100368.09;4898873;29;20067;-63
2023/03/01 11:42:58;;;;;;;0.90;0.90;;;;;;;8.53;51.31;100370.16;4897097;29;20087;-64
2023/03/01 11:45:39;;;;;;;0.80;0.80;;;;;;;8.65;50.24;100365.28;4915076;29;20384;-63
2023/03/01 11:48:32;;;;;;;1.30;1.15;;;;;;;8.58;49.82;100358.38;4900736;29;20135;-63
2023/03/01 11:51:26;;;;;;;2.13;0.93;;;;;;;8.69;49.58;100356.88;4898998;29;20144;-65
2023/03/01 11:54:15;;;;;;;0.70;0.70;;;;;;;8.71;49.60;100339.94;4890206;29;20100;-63
2023/03/01 11:56:50;;;;;;;0.63;0.63;;;;;;;8.62;49.11;100355.03;4882029;29;20080;-63
2023/03/01 11:59:52;;;;;;;2.03;1.45;;;;;;;8.71;49.22;100348.44;4882125;29;20280;-64